Terminal Aerodrome Forecast
Issued by NWS Binghamton, NY

Home | Current Version | Previous Version | Text Only | Print | Product List | Glossary On
Versions: 1 2 3 4 5 6 7 8 9 10 11 12 13 14 15 16 17 18 19 20 21 22 23
000
FTUS41 KBGM 301913 AAC
TAFBGM
TAF AMD
KBGM 301913Z 3019/3118 20010G18KT P6SM SCT040
      TEMPO 3019/3022 4SM TSRA BR OVC040CB
     FM302300 20008KT P6SM OVC100
     FM310600 25008KT 3SM -RA BR OVC025
     FM310900 30008KT 1 1/2SM -RA BR OVC003
     FM311500 36006KT 3SM -RA BR OVC009=

USA.gov is the U.S. government's official web portal to all federal, state and local government web resources and services.